Aérodrome :
LOGIN :

S'inscrire | Disclaimer

   EN    FR    IT 

 










Légende :    VFR   VFR Marginal   IFR   IFR Intensif   IFR Très Intensif
Visi : 
Plafond : 
>= 8 km
>= 3000ft
5 à 8 km
1000 à 3000 ft
1500m à 5 km
500 à 1000 ft
800 à 1500m
200 à 500 ft
< 800m
< 200 ft
Symboles :   Orages  Brouillard  Fortes neiges  Fortes précipitations  Vent > 20 kt
SIGMETs :   Divers  Orages  Givrage  Turbulence  Onde Orograph.  Cendres Volcan.







- Altitude de l'aérodrome : 1496 ft
- Code IATA : SBZ


LRSB - Sibiu

DERNIER METAR :
  • 211130Z VRB03KT 9999 SCT030 SCT039 11/02 Q1032 R27/29//95 NOSIG

METARs EXPIRÉS :
  • 211100Z VRB03KT 9999 SCT028 SCT037 11/03 Q1032 R27/29//95 NOSIG
  • 211030Z 06003KT 340V140 9999 SCT027 SCT037 11/03 Q1032 R27/29//95 NOSIG
  • 211000Z VRB02KT 9999 SCT023 SCT045 10/04 Q1032 R27/29//95 NOSIG
  • 210930Z VRB03KT 9999 SCT025 10/04 Q1032 R27/29//95 NOSIG
  • 210900Z VRB02KT 9999 FEW012 SCT050 09/03 Q1033 R27/29//95 NOSIG

TAF TAF LRSB
Valide du 21 à 12h jusqu'au 22 à 12h UTC


211100Z 2112/2212 VRB04KT 9999 SCT040
TEMPO 2112/2116 34010KT
Pas de NOTAMs connus pour ce terrain.



MET'MAP, la Météo Aéronautique d'un coup d'oeil ! - Copyright ORBIFLY Décembre 2007 - Disclaimer

ORBIFLY MET'MAP TEAM :

Programmation & Développement : Alexandra Zaïnal
Conception & Développement : Baudouin d'Aumeries
Co-Programmation & Développement : Marc-Olivier Méhu
Soutien technique & logistique : Manuel Goepfert

Contact : metmap@orbifly.com




SOURCES & CREDITS :

   NOAA